Airfield :
LOGIN :

Register | Disclaimer

   EN    FR    IT 

 










Legend :    VFR   Marginal VFR   IFR   Intensive IFR   Very Intensive IFR
Visi :
Ceiling :
>= 8 km
>= 3000ft
5 to 8 km
1000 to 3000 ft
1500m to 5 km
500 to 1000 ft
800 to 1500m
200 to 500 ft
< 800m
< 200 ft
Symbols :   Thunderstorms  Fog  Heavy snow  Heavy precipitations  Wind > 20 kt
SIGMETs :     Misc.  Thunderstorms  Icing  Turbulence  Mountain Waves  Volcanic Ashes






- Airport Elevation : 844 ft
- IATA code : OSR


LKMT - Ostrava-Mosnov

CURRENT METAR :
  • 011430Z 22014KT 9999 BKN022 03/01 Q1010 NOSIG

EXPIRED METARs :
  • 011400Z 22014KT 9999 BKN022 03/01 Q1010 NOSIG
  • 011330Z 21015KT 9999 BKN021 03/01 Q1010 NOSIG
  • 011300Z 22014KT 9999 BKN023 03/01 Q1010 NOSIG
  • 011230Z 22014KT 9999 BKN021 03/01 Q1011 NOSIG
  • 011200Z 22014KT 9999 BKN023 04/01 Q1011 NOSIG

TAF TAF LKMT
Valid from the 01 at 12:00 until the 02 at 12:00 UTC


011100Z 0112/0212 23010KT 9999 BKN025
TEMPO 0112/0212 24012G24KT
TEMPO 0112/0212 5000 -SHSNRA BKN013
PROB30
TEMPO 0114/0200 3000 SHSNRA BKN009TCU



MET'MAP, your aeronautical weather chart ! - Copyright ORBIFLY December 2007 - Disclaimer

ORBIFLY MET'MAP TEAM :

Programming & Development : Alexandra Zaïnal
Original concept : Baudouin d'Aumeries
Technical & hardware support : Manuel Goepfert
Assistance : Marc-Olivier Méhu




SOURCES & CREDITS :

   NOAA